sensor_id;sensor_type;location;lat;lon;timestamp;P1;durP1;ratioP1;P2;durP2;ratioP2
20734;SDS011;10528;52.124;5.196;2023-02-15T00:00:05;39.55;;;24.27;;
20734;SDS011;10528;52.124;5.196;2023-02-15T00:02:36;38.15;;;22.83;;
20734;SDS011;10528;52.124;5.196;2023-02-15T00:05:03;35.45;;;22.98;;
20734;SDS011;10528;52.124;5.196;2023-02-15T00:07:30;37.15;;;23.25;;
20734;SDS011;10528;52.124;5.196;2023-02-15T00:09:57;38.78;;;22.83;;
20734;SDS011;10528;52.124;5.196;2023-02-15T00:12:24;34.10;;;23.05;;
20734;SDS011;10528;52.124;5.196;2023-02-15T00:14:51;35.80;;;22.17;;
20734;SDS011;10528;52.124;5.196;2023-02-15T00:17:18;34.65;;;23.13;;
20734;SDS011;10528;52.124;5.196;2023-02-15T00:19:45;35.92;;;23.23;;
20734;SDS011;10528;52.124;5.196;2023-02-15T00:22:11;31.10;;;22.05;;
20734;SDS011;10528;52.124;5.196;2023-02-15T00:24:38;33.92;;;22.63;;
20734;SDS011;10528;52.124;5.196;2023-02-15T00:27:05;33.78;;;21.90;;
20734;SDS011;10528;52.124;5.196;2023-02-15T00:29:32;33.45;;;21.70;;
20734;SDS011;10528;52.124;5.196;2023-02-15T00:31:59;32.20;;;21.90;;
20734;SDS011;10528;52.124;5.196;2023-02-15T00:34:26;32.47;;;21.58;;
20734;SDS011;10528;52.124;5.196;2023-02-15T00:36:55;34.70;;;21.73;;
20734;SDS011;10528;52.124;5.196;2023-02-15T00:39:23;32.33;;;22.20;;
20734;SDS011;10528;52.124;5.196;2023-02-15T00:41:50;34.63;;;22.67;;
20734;SDS011;10528;52.124;5.196;2023-02-15T00:44:17;34.10;;;21.90;;
20734;SDS011;10528;52.124;5.196;2023-02-15T00:46:44;32.53;;;21.67;;
20734;SDS011;10528;52.124;5.196;2023-02-15T00:49:11;33.85;;;22.20;;
20734;SDS011;10528;52.124;5.196;2023-02-15T00:51:38;36.20;;;22.58;;
20734;SDS011;10528;52.124;5.196;2023-02-15T00:54:05;38.78;;;22.63;;
20734;SDS011;10528;52.124;5.196;2023-02-15T00:56:32;37.40;;;21.63;;
20734;SDS011;10528;52.124;5.196;2023-02-15T00:58:59;34.90;;;22.13;;
20734;SDS011;10528;52.124;5.196;2023-02-15T01:01:26;33.10;;;21.92;;
20734;SDS011;10528;52.124;5.196;2023-02-15T01:03:53;36.05;;;22.42;;
20734;SDS011;10528;52.124;5.196;2023-02-15T01:06:20;33.65;;;21.92;;
20734;SDS011;10528;52.124;5.196;2023-02-15T01:08:47;34.50;;;22.25;;
20734;SDS011;10528;52.124;5.196;2023-02-15T01:11:16;33.25;;;21.25;;
20734;SDS011;10528;52.124;5.196;2023-02-15T01:13:49;32.83;;;21.67;;
20734;SDS011;10528;52.124;5.196;2023-02-15T01:16:22;39.33;;;22.50;;
20734;SDS011;10528;52.124;5.196;2023-02-15T01:18:52;33.67;;;22.00;;
20734;SDS011;10528;52.124;5.196;2023-02-15T01:21:21;31.92;;;22.42;;
20734;SDS011;10528;52.124;5.196;2023-02-15T01:23:50;37.60;;;22.38;;
20734;SDS011;10528;52.124;5.196;2023-02-15T01:26:17;34.15;;;23.00;;
20734;SDS011;10528;52.124;5.196;2023-02-15T01:28:44;35.10;;;23.08;;
20734;SDS011;10528;52.124;5.196;2023-02-15T01:31:13;35.80;;;23.83;;
20734;SDS011;10528;52.124;5.196;2023-02-15T01:33:43;36.88;;;23.65;;
20734;SDS011;10528;52.124;5.196;2023-02-15T01:36:12;32.53;;;22.10;;
20734;SDS011;10528;52.124;5.196;2023-02-15T01:38:40;37.53;;;23.70;;
20734;SDS011;10528;52.124;5.196;2023-02-15T01:41:08;32.65;;;22.38;;
20734;SDS011;10528;52.124;5.196;2023-02-15T01:43:56;38.00;;;22.40;;
20734;SDS011;10528;52.124;5.196;2023-02-15T01:46:33;34.17;;;22.70;;
20734;SDS011;10528;52.124;5.196;2023-02-15T01:49:17;33.92;;;21.75;;
20734;SDS011;10528;52.124;5.196;2023-02-15T01:51:50;33.47;;;22.35;;
20734;SDS011;10528;52.124;5.196;2023-02-15T01:54:21;34.00;;;21.10;;
20734;SDS011;10528;52.124;5.196;2023-02-15T01:57:00;32.75;;;21.33;;
20734;SDS011;10528;52.124;5.196;2023-02-15T01:59:46;31.45;;;22.10;;
20734;SDS011;10528;52.124;5.196;2023-02-15T02:02:20;31.52;;;21.88;;
20734;SDS011;10528;52.124;5.196;2023-02-15T02:04:53;33.22;;;21.63;;
20734;SDS011;10528;52.124;5.196;2023-02-15T02:07:27;34.40;;;22.73;;
20734;SDS011;10528;52.124;5.196;2023-02-15T02:09:58;33.20;;;21.92;;
20734;SDS011;10528;52.124;5.196;2023-02-15T02:12:28;32.42;;;22.42;;
20734;SDS011;10528;52.124;5.196;2023-02-15T02:14:55;31.50;;;21.83;;
20734;SDS011;10528;52.124;5.196;2023-02-15T02:27:04;33.90;;;21.98;;
20734;SDS011;10528;52.124;5.196;2023-02-15T02:38:20;31.17;;;20.25;;
20734;SDS011;10528;52.124;5.196;2023-02-15T02:44:05;32.88;;;21.25;;
20734;SDS011;10528;52.124;5.196;2023-02-15T02:46:58;32.35;;;20.67;;
20734;SDS011;10528;52.124;5.196;2023-02-15T02:49:38;35.55;;;21.45;;
20734;SDS011;10528;52.124;5.196;2023-02-15T02:55:11;33.70;;;21.67;;
20734;SDS011;10528;52.124;5.196;2023-02-15T03:00:25;32.92;;;21.30;;
20734;SDS011;10528;52.124;5.196;2023-02-15T03:03:02;34.28;;;21.48;;
20734;SDS011;10528;52.124;5.196;2023-02-15T03:05:37;31.58;;;20.33;;
20734;SDS011;10528;52.124;5.196;2023-02-15T03:08:12;34.03;;;20.63;;
20734;SDS011;10528;52.124;5.196;2023-02-15T03:10:51;32.00;;;20.35;;
20734;SDS011;10528;52.124;5.196;2023-02-15T03:13:22;33.63;;;20.88;;
20734;SDS011;10528;52.124;5.196;2023-02-15T03:15:50;33.47;;;21.48;;
20734;SDS011;10528;52.124;5.196;2023-02-15T03:19:21;31.60;;;20.55;;
20734;SDS011;10528;52.124;5.196;2023-02-15T03:21:36;30.70;;;19.50;;
20734;SDS011;10528;52.124;5.196;2023-02-15T03:24:24;30.08;;;19.55;;
20734;SDS011;10528;52.124;5.196;2023-02-15T03:27:00;33.30;;;21.70;;
20734;SDS011;10528;52.124;5.196;2023-02-15T03:29:34;31.08;;;20.13;;
20734;SDS011;10528;52.124;5.196;2023-02-15T03:32:04;31.73;;;21.40;;
20734;SDS011;10528;52.124;5.196;2023-02-15T03:34:37;34.08;;;21.27;;
20734;SDS011;10528;52.124;5.196;2023-02-15T03:40:21;29.38;;;19.55;;
20734;SDS011;10528;52.124;5.196;2023-02-15T03:48:50;33.03;;;20.08;;
20734;SDS011;10528;52.124;5.196;2023-02-15T03:51:24;31.23;;;20.55;;
20734;SDS011;10528;52.124;5.196;2023-02-15T03:54:05;33.65;;;21.35;;
20734;SDS011;10528;52.124;5.196;2023-02-15T03:57:06;33.55;;;20.73;;
20734;SDS011;10528;52.124;5.196;2023-02-15T04:00:09;36.63;;;21.65;;
20734;SDS011;10528;52.124;5.196;2023-02-15T04:06:04;32.92;;;20.83;;
20734;SDS011;10528;52.124;5.196;2023-02-15T04:08:31;30.60;;;20.50;;
20734;SDS011;10528;52.124;5.196;2023-02-15T04:11:16;34.67;;;22.10;;
20734;SDS011;10528;52.124;5.196;2023-02-15T04:13:43;34.67;;;21.27;;
20734;SDS011;10528;52.124;5.196;2023-02-15T04:16:10;31.98;;;21.33;;
20734;SDS011;10528;52.124;5.196;2023-02-15T04:18:39;30.55;;;20.13;;
20734;SDS011;10528;52.124;5.196;2023-02-15T04:21:28;30.98;;;20.67;;
20734;SDS011;10528;52.124;5.196;2023-02-15T04:24:15;31.50;;;19.50;;
20734;SDS011;10528;52.124;5.196;2023-02-15T04:27:01;31.80;;;21.15;;
20734;SDS011;10528;52.124;5.196;2023-02-15T04:29:30;36.05;;;21.85;;
20734;SDS011;10528;52.124;5.196;2023-02-15T04:31:58;35.92;;;21.90;;
20734;SDS011;10528;52.124;5.196;2023-02-15T04:34:27;32.25;;;20.83;;
20734;SDS011;10528;52.124;5.196;2023-02-15T04:36:54;30.13;;;20.33;;
20734;SDS011;10528;52.124;5.196;2023-02-15T04:39:21;37.60;;;21.13;;
20734;SDS011;10528;52.124;5.196;2023-02-15T04:41:47;33.92;;;20.85;;
20734;SDS011;10528;52.124;5.196;2023-02-15T04:44:14;34.17;;;21.17;;
20734;SDS011;10528;52.124;5.196;2023-02-15T04:46:41;31.20;;;21.13;;
20734;SDS011;10528;52.124;5.196;2023-02-15T04:49:08;33.50;;;20.70;;
20734;SDS011;10528;52.124;5.196;2023-02-15T04:51:35;33.17;;;20.98;;
20734;SDS011;10528;52.124;5.196;2023-02-15T04:54:02;34.58;;;21.60;;
20734;SDS011;10528;52.124;5.196;2023-02-15T04:56:29;31.38;;;21.17;;
20734;SDS011;10528;52.124;5.196;2023-02-15T04:58:59;29.42;;;19.38;;
20734;SDS011;10528;52.124;5.196;2023-02-15T05:01:26;34.50;;;20.67;;
20734;SDS011;10528;52.124;5.196;2023-02-15T05:03:52;33.17;;;21.15;;
20734;SDS011;10528;52.124;5.196;2023-02-15T05:06:19;30.33;;;20.33;;
20734;SDS011;10528;52.124;5.196;2023-02-15T05:08:46;34.00;;;20.30;;
20734;SDS011;10528;52.124;5.196;2023-02-15T05:11:13;32.63;;;21.27;;
20734;SDS011;10528;52.124;5.196;2023-02-15T05:13:40;31.45;;;19.83;;
20734;SDS011;10528;52.124;5.196;2023-02-15T05:16:11;33.28;;;20.38;;
20734;SDS011;10528;52.124;5.196;2023-02-15T05:18:38;29.45;;;19.10;;
20734;SDS011;10528;52.124;5.196;2023-02-15T05:21:05;30.77;;;20.23;;
20734;SDS011;10528;52.124;5.196;2023-02-15T05:23:32;30.95;;;19.30;;
20734;SDS011;10528;52.124;5.196;2023-02-15T05:25:58;30.88;;;19.85;;
20734;SDS011;10528;52.124;5.196;2023-02-15T05:28:44;30.90;;;19.10;;
20734;SDS011;10528;52.124;5.196;2023-02-15T05:31:12;28.52;;;18.48;;
20734;SDS011;10528;52.124;5.196;2023-02-15T05:33:43;37.15;;;20.90;;
20734;SDS011;10528;52.124;5.196;2023-02-15T05:36:10;34.95;;;20.38;;
20734;SDS011;10528;52.124;5.196;2023-02-15T05:38:38;28.92;;;18.92;;
20734;SDS011;10528;52.124;5.196;2023-02-15T05:41:06;31.02;;;19.85;;
20734;SDS011;10528;52.124;5.196;2023-02-15T05:43:35;33.35;;;20.95;;
20734;SDS011;10528;52.124;5.196;2023-02-15T05:46:03;33.15;;;19.55;;
20734;SDS011;10528;52.124;5.196;2023-02-15T05:48:31;29.23;;;19.17;;
20734;SDS011;10528;52.124;5.196;2023-02-15T05:50:59;30.20;;;19.85;;
20734;SDS011;10528;52.124;5.196;2023-02-15T05:53:33;30.70;;;18.65;;
20734;SDS011;10528;52.124;5.196;2023-02-15T05:56:03;28.75;;;19.70;;
20734;SDS011;10528;52.124;5.196;2023-02-15T05:58:36;30.58;;;19.30;;
20734;SDS011;10528;52.124;5.196;2023-02-15T06:01:09;30.13;;;19.20;;
20734;SDS011;10528;52.124;5.196;2023-02-15T06:03:43;31.10;;;19.42;;
20734;SDS011;10528;52.124;5.196;2023-02-15T06:06:12;30.15;;;18.52;;
20734;SDS011;10528;52.124;5.196;2023-02-15T06:08:39;28.40;;;18.95;;
20734;SDS011;10528;52.124;5.196;2023-02-15T06:11:06;29.73;;;18.63;;
20734;SDS011;10528;52.124;5.196;2023-02-15T06:13:34;32.67;;;20.58;;
20734;SDS011;10528;52.124;5.196;2023-02-15T06:16:04;27.65;;;18.10;;
20734;SDS011;10528;52.124;5.196;2023-02-15T06:18:33;32.03;;;19.83;;
20734;SDS011;10528;52.124;5.196;2023-02-15T06:21:00;28.70;;;18.00;;
20734;SDS011;10528;52.124;5.196;2023-02-15T06:23:27;34.15;;;19.25;;
20734;SDS011;10528;52.124;5.196;2023-02-15T06:25:54;31.60;;;18.35;;
20734;SDS011;10528;52.124;5.196;2023-02-15T06:28:21;30.27;;;19.27;;
20734;SDS011;10528;52.124;5.196;2023-02-15T06:30:48;29.05;;;18.75;;
20734;SDS011;10528;52.124;5.196;2023-02-15T06:33:15;29.85;;;18.75;;
20734;SDS011;10528;52.124;5.196;2023-02-15T06:35:42;32.17;;;19.35;;
20734;SDS011;10528;52.124;5.196;2023-02-15T06:38:09;30.60;;;19.95;;
20734;SDS011;10528;52.124;5.196;2023-02-15T06:40:36;27.90;;;17.83;;
20734;SDS011;10528;52.124;5.196;2023-02-15T06:43:03;31.20;;;19.48;;
20734;SDS011;10528;52.124;5.196;2023-02-15T06:45:30;34.00;;;21.13;;
20734;SDS011;10528;52.124;5.196;2023-02-15T06:47:57;47.92;;;27.65;;
20734;SDS011;10528;52.124;5.196;2023-02-15T06:50:23;40.53;;;25.60;;
20734;SDS011;10528;52.124;5.196;2023-02-15T06:52:55;34.28;;;21.80;;
20734;SDS011;10528;52.124;5.196;2023-02-15T06:55:23;38.28;;;21.83;;
20734;SDS011;10528;52.124;5.196;2023-02-15T06:57:50;32.85;;;20.85;;
20734;SDS011;10528;52.124;5.196;2023-02-15T07:00:17;35.00;;;21.23;;
20734;SDS011;10528;52.124;5.196;2023-02-15T07:02:44;31.55;;;21.33;;
20734;SDS011;10528;52.124;5.196;2023-02-15T07:05:11;29.85;;;19.60;;
20734;SDS011;10528;52.124;5.196;2023-02-15T07:07:38;31.75;;;20.75;;
20734;SDS011;10528;52.124;5.196;2023-02-15T07:10:05;32.03;;;20.02;;
20734;SDS011;10528;52.124;5.196;2023-02-15T07:12:32;33.28;;;19.77;;
20734;SDS011;10528;52.124;5.196;2023-02-15T07:15:09;34.97;;;20.45;;
20734;SDS011;10528;52.124;5.196;2023-02-15T07:17:42;35.67;;;20.90;;
20734;SDS011;10528;52.124;5.196;2023-02-15T07:20:11;35.05;;;21.02;;
20734;SDS011;10528;52.124;5.196;2023-02-15T07:22:45;36.55;;;20.67;;
20734;SDS011;10528;52.124;5.196;2023-02-15T07:25:13;31.45;;;20.63;;
20734;SDS011;10528;52.124;5.196;2023-02-15T07:27:41;32.95;;;20.50;;
20734;SDS011;10528;52.124;5.196;2023-02-15T07:30:09;36.67;;;20.40;;
20734;SDS011;10528;52.124;5.196;2023-02-15T07:32:39;38.17;;;21.85;;
20734;SDS011;10528;52.124;5.196;2023-02-15T07:35:30;30.40;;;20.05;;
20734;SDS011;10528;52.124;5.196;2023-02-15T07:37:57;33.45;;;21.08;;
20734;SDS011;10528;52.124;5.196;2023-02-15T07:40:24;35.28;;;21.40;;
20734;SDS011;10528;52.124;5.196;2023-02-15T07:42:51;35.92;;;22.50;;
20734;SDS011;10528;52.124;5.196;2023-02-15T07:45:20;34.97;;;21.63;;
20734;SDS011;10528;52.124;5.196;2023-02-15T07:47:48;35.25;;;21.38;;
20734;SDS011;10528;52.124;5.196;2023-02-15T07:50:15;32.72;;;20.52;;
20734;SDS011;10528;52.124;5.196;2023-02-15T07:52:42;34.83;;;22.80;;
20734;SDS011;10528;52.124;5.196;2023-02-15T07:55:09;35.08;;;22.55;;
20734;SDS011;10528;52.124;5.196;2023-02-15T07:57:45;37.92;;;23.23;;
20734;SDS011;10528;52.124;5.196;2023-02-15T08:00:15;37.60;;;22.48;;
20734;SDS011;10528;52.124;5.196;2023-02-15T08:02:48;36.65;;;22.58;;
20734;SDS011;10528;52.124;5.196;2023-02-15T08:05:41;33.83;;;22.70;;
20734;SDS011;10528;52.124;5.196;2023-02-15T08:08:11;38.40;;;24.30;;
20734;SDS011;10528;52.124;5.196;2023-02-15T08:11:00;37.83;;;23.15;;
20734;SDS011;10528;52.124;5.196;2023-02-15T08:16:37;41.30;;;24.40;;
20734;SDS011;10528;52.124;5.196;2023-02-15T08:19:11;35.88;;;23.88;;
20734;SDS011;10528;52.124;5.196;2023-02-15T08:21:46;38.80;;;24.73;;
20734;SDS011;10528;52.124;5.196;2023-02-15T08:24:32;38.33;;;24.27;;
20734;SDS011;10528;52.124;5.196;2023-02-15T08:27:03;39.42;;;24.52;;
20734;SDS011;10528;52.124;5.196;2023-02-15T08:29:32;44.75;;;25.95;;
20734;SDS011;10528;52.124;5.196;2023-02-15T08:32:11;48.20;;;25.90;;
20734;SDS011;10528;52.124;5.196;2023-02-15T08:34:40;44.50;;;27.15;;
20734;SDS011;10528;52.124;5.196;2023-02-15T08:37:07;41.58;;;26.35;;
20734;SDS011;10528;52.124;5.196;2023-02-15T08:39:35;45.20;;;26.88;;
20734;SDS011;10528;52.124;5.196;2023-02-15T08:42:03;38.67;;;25.13;;
20734;SDS011;10528;52.124;5.196;2023-02-15T08:44:30;44.28;;;26.65;;
20734;SDS011;10528;52.124;5.196;2023-02-15T08:46:57;43.83;;;26.63;;
20734;SDS011;10528;52.124;5.196;2023-02-15T08:49:29;43.75;;;26.27;;
20734;SDS011;10528;52.124;5.196;2023-02-15T08:51:56;40.35;;;26.08;;
20734;SDS011;10528;52.124;5.196;2023-02-15T08:54:23;42.55;;;26.13;;
20734;SDS011;10528;52.124;5.196;2023-02-15T08:56:50;44.35;;;26.88;;
20734;SDS011;10528;52.124;5.196;2023-02-15T08:59:18;42.20;;;26.95;;
20734;SDS011;10528;52.124;5.196;2023-02-15T09:01:49;44.70;;;27.45;;
20734;SDS011;10528;52.124;5.196;2023-02-15T09:04:18;44.78;;;27.52;;
20734;SDS011;10528;52.124;5.196;2023-02-15T09:06:47;45.30;;;26.02;;
20734;SDS011;10528;52.124;5.196;2023-02-15T09:09:16;46.72;;;28.88;;
20734;SDS011;10528;52.124;5.196;2023-02-15T09:11:46;40.83;;;25.42;;
20734;SDS011;10528;52.124;5.196;2023-02-15T09:14:22;41.30;;;27.75;;
20734;SDS011;10528;52.124;5.196;2023-02-15T09:16:51;42.78;;;27.67;;
20734;SDS011;10528;52.124;5.196;2023-02-15T09:19:20;42.25;;;26.35;;
20734;SDS011;10528;52.124;5.196;2023-02-15T09:21:48;44.45;;;28.42;;
20734;SDS011;10528;52.124;5.196;2023-02-15T09:24:16;44.28;;;27.73;;
20734;SDS011;10528;52.124;5.196;2023-02-15T09:26:45;43.08;;;26.35;;
20734;SDS011;10528;52.124;5.196;2023-02-15T09:29:15;43.08;;;28.45;;
20734;SDS011;10528;52.124;5.196;2023-02-15T09:31:45;42.72;;;26.65;;
20734;SDS011;10528;52.124;5.196;2023-02-15T09:34:15;41.03;;;26.45;;
20734;SDS011;10528;52.124;5.196;2023-02-15T09:36:46;41.00;;;27.65;;
20734;SDS011;10528;52.124;5.196;2023-02-15T09:39:15;43.53;;;28.00;;
20734;SDS011;10528;52.124;5.196;2023-02-15T09:44:47;43.53;;;28.45;;
20734;SDS011;10528;52.124;5.196;2023-02-15T09:50:57;44.72;;;28.02;;
20734;SDS011;10528;52.124;5.196;2023-02-15T09:54:11;40.92;;;27.02;;
20734;SDS011;10528;52.124;5.196;2023-02-15T09:56:53;40.38;;;25.95;;
20734;SDS011;10528;52.124;5.196;2023-02-15T10:05:46;42.28;;;27.17;;
20734;SDS011;10528;52.124;5.196;2023-02-15T10:08:55;42.20;;;26.05;;
20734;SDS011;10528;52.124;5.196;2023-02-15T10:25:18;40.17;;;25.90;;
20734;SDS011;10528;52.124;5.196;2023-02-15T10:27:25;41.72;;;27.02;;
20734;SDS011;10528;52.124;5.196;2023-02-15T10:30:06;41.33;;;26.83;;
20734;SDS011;10528;52.124;5.196;2023-02-15T10:35:38;41.28;;;27.40;;
20734;SDS011;10528;52.124;5.196;2023-02-15T10:44:22;43.83;;;27.63;;
20734;SDS011;10528;52.124;5.196;2023-02-15T10:53:11;45.05;;;26.65;;
20734;SDS011;10528;52.124;5.196;2023-02-15T10:56:30;41.88;;;26.60;;
20734;SDS011;10528;52.124;5.196;2023-02-15T11:02:14;45.03;;;27.50;;
20734;SDS011;10528;52.124;5.196;2023-02-15T11:07:54;43.67;;;27.85;;
20734;SDS011;10528;52.124;5.196;2023-02-15T11:10:30;40.08;;;27.38;;
20734;SDS011;10528;52.124;5.196;2023-02-15T11:13:18;45.28;;;27.55;;
20734;SDS011;10528;52.124;5.196;2023-02-15T11:15:51;45.75;;;28.67;;
20734;SDS011;10528;52.124;5.196;2023-02-15T11:18:25;44.90;;;27.50;;
20734;SDS011;10528;52.124;5.196;2023-02-15T11:23:54;44.03;;;26.20;;
20734;SDS011;10528;52.124;5.196;2023-02-15T11:32:38;43.05;;;27.23;;
20734;SDS011;10528;52.124;5.196;2023-02-15T11:35:10;40.42;;;26.27;;
20734;SDS011;10528;52.124;5.196;2023-02-15T11:40:54;45.97;;;29.30;;
20734;SDS011;10528;52.124;5.196;2023-02-15T11:43:46;47.55;;;29.27;;
20734;SDS011;10528;52.124;5.196;2023-02-15T11:46:22;43.85;;;28.13;;
20734;SDS011;10528;52.124;5.196;2023-02-15T11:48:49;44.65;;;28.65;;
20734;SDS011;10528;52.124;5.196;2023-02-15T11:51:17;42.78;;;28.38;;
20734;SDS011;10528;52.124;5.196;2023-02-15T11:53:49;44.80;;;29.00;;
20734;SDS011;10528;52.124;5.196;2023-02-15T11:56:19;50.22;;;31.40;;
20734;SDS011;10528;52.124;5.196;2023-02-15T11:59:10;48.50;;;30.35;;
20734;SDS011;10528;52.124;5.196;2023-02-15T12:02:02;46.78;;;29.55;;
20734;SDS011;10528;52.124;5.196;2023-02-15T12:04:46;43.53;;;28.10;;
20734;SDS011;10528;52.124;5.196;2023-02-15T12:07:22;45.45;;;28.40;;
20734;SDS011;10528;52.124;5.196;2023-02-15T12:12:48;50.20;;;29.60;;
20734;SDS011;10528;52.124;5.196;2023-02-15T12:15:46;46.47;;;29.73;;
20734;SDS011;10528;52.124;5.196;2023-02-15T12:18:24;44.28;;;28.42;;
20734;SDS011;10528;52.124;5.196;2023-02-15T12:21:12;47.25;;;29.17;;
20734;SDS011;10528;52.124;5.196;2023-02-15T12:23:54;46.72;;;30.10;;
20734;SDS011;10528;52.124;5.196;2023-02-15T12:26:44;48.58;;;29.92;;
20734;SDS011;10528;52.124;5.196;2023-02-15T12:29:45;48.45;;;29.88;;
20734;SDS011;10528;52.124;5.196;2023-02-15T12:32:22;47.90;;;30.98;;
20734;SDS011;10528;52.124;5.196;2023-02-15T12:35:16;50.60;;;30.40;;
20734;SDS011;10528;52.124;5.196;2023-02-15T12:38:00;44.45;;;29.60;;
20734;SDS011;10528;52.124;5.196;2023-02-15T12:40:56;43.13;;;29.45;;
20734;SDS011;10528;52.124;5.196;2023-02-15T12:43:47;48.70;;;31.00;;
20734;SDS011;10528;52.124;5.196;2023-02-15T12:46:39;46.47;;;30.35;;
20734;SDS011;10528;52.124;5.196;2023-02-15T12:51:43;47.53;;;29.15;;
20734;SDS011;10528;52.124;5.196;2023-02-15T12:56:50;48.42;;;31.10;;
20734;SDS011;10528;52.124;5.196;2023-02-15T12:59:18;48.78;;;30.85;;
20734;SDS011;10528;52.124;5.196;2023-02-15T13:01:48;50.50;;;31.15;;
20734;SDS011;10528;52.124;5.196;2023-02-15T13:04:24;50.25;;;30.65;;
20734;SDS011;10528;52.124;5.196;2023-02-15T13:06:55;48.47;;;31.25;;
20734;SDS011;10528;52.124;5.196;2023-02-15T13:12:08;50.13;;;30.95;;
20734;SDS011;10528;52.124;5.196;2023-02-15T13:14:47;44.97;;;30.42;;
20734;SDS011;10528;52.124;5.196;2023-02-15T13:17:19;49.00;;;31.75;;
20734;SDS011;10528;52.124;5.196;2023-02-15T13:19:56;51.67;;;32.97;;
20734;SDS011;10528;52.124;5.196;2023-02-15T13:22:39;50.97;;;31.77;;
20734;SDS011;10528;52.124;5.196;2023-02-15T13:25:32;50.08;;;32.63;;
20734;SDS011;10528;52.124;5.196;2023-02-15T13:28:12;50.60;;;31.63;;
20734;SDS011;10528;52.124;5.196;2023-02-15T13:30:44;54.35;;;32.92;;
20734;SDS011;10528;52.124;5.196;2023-02-15T13:42:31;48.47;;;29.88;;
20734;SDS011;10528;52.124;5.196;2023-02-15T13:51:36;47.25;;;29.83;;
20734;SDS011;10528;52.124;5.196;2023-02-15T13:57:32;44.58;;;29.80;;
20734;SDS011;10528;52.124;5.196;2023-02-15T14:00:21;46.63;;;30.08;;
20734;SDS011;10528;52.124;5.196;2023-02-15T14:03:16;46.35;;;30.90;;
20734;SDS011;10528;52.124;5.196;2023-02-15T14:08:58;50.05;;;31.02;;
20734;SDS011;10528;52.124;5.196;2023-02-15T14:12:11;49.35;;;31.63;;
20734;SDS011;10528;52.124;5.196;2023-02-15T14:17:55;46.80;;;30.50;;
20734;SDS011;10528;52.124;5.196;2023-02-15T14:23:52;48.13;;;30.67;;
20734;SDS011;10528;52.124;5.196;2023-02-15T14:26:49;44.03;;;29.50;;
20734;SDS011;10528;52.124;5.196;2023-02-15T14:32:51;49.17;;;29.77;;
20734;SDS011;10528;52.124;5.196;2023-02-15T14:35:26;49.53;;;31.10;;
20734;SDS011;10528;52.124;5.196;2023-02-15T14:41:10;48.60;;;30.85;;
20734;SDS011;10528;52.124;5.196;2023-02-15T14:49:44;45.40;;;30.65;;
20734;SDS011;10528;52.124;5.196;2023-02-15T14:52:12;49.70;;;30.98;;
20734;SDS011;10528;52.124;5.196;2023-02-15T15:05:10;47.95;;;30.00;;
20734;SDS011;10528;52.124;5.196;2023-02-15T15:08:01;46.90;;;30.92;;
20734;SDS011;10528;52.124;5.196;2023-02-15T15:10:37;49.63;;;29.80;;
20734;SDS011;10528;52.124;5.196;2023-02-15T15:16:23;48.88;;;30.98;;
20734;SDS011;10528;52.124;5.196;2023-02-15T15:19:03;49.13;;;30.23;;
20734;SDS011;10528;52.124;5.196;2023-02-15T15:32:47;52.35;;;31.65;;
20734;SDS011;10528;52.124;5.196;2023-02-15T15:41:44;50.72;;;30.67;;
20734;SDS011;10528;52.124;5.196;2023-02-15T15:44:31;49.13;;;30.60;;
20734;SDS011;10528;52.124;5.196;2023-02-15T15:48:22;50.17;;;32.80;;
20734;SDS011;10528;52.124;5.196;2023-02-15T15:50:59;49.63;;;32.00;;
20734;SDS011;10528;52.124;5.196;2023-02-15T15:53:33;46.97;;;31.40;;
20734;SDS011;10528;52.124;5.196;2023-02-15T15:56:10;49.47;;;31.30;;
20734;SDS011;10528;52.124;5.196;2023-02-15T15:58:50;47.58;;;32.08;;
20734;SDS011;10528;52.124;5.196;2023-02-15T16:01:27;52.72;;;32.55;;
20734;SDS011;10528;52.124;5.196;2023-02-15T16:03:58;49.35;;;32.55;;
20734;SDS011;10528;52.124;5.196;2023-02-15T16:06:27;52.03;;;32.97;;
20734;SDS011;10528;52.124;5.196;2023-02-15T16:09:15;53.92;;;33.53;;
20734;SDS011;10528;52.124;5.196;2023-02-15T16:11:52;46.90;;;31.00;;
20734;SDS011;10528;52.124;5.196;2023-02-15T16:14:34;47.67;;;31.58;;
20734;SDS011;10528;52.124;5.196;2023-02-15T16:17:06;48.70;;;31.45;;
20734;SDS011;10528;52.124;5.196;2023-02-15T16:19:43;48.20;;;30.98;;
20734;SDS011;10528;52.124;5.196;2023-02-15T16:22:15;49.38;;;31.55;;
20734;SDS011;10528;52.124;5.196;2023-02-15T16:27:46;54.97;;;31.60;;
20734;SDS011;10528;52.124;5.196;2023-02-15T16:30:19;47.50;;;32.15;;
20734;SDS011;10528;52.124;5.196;2023-02-15T16:35:40;49.95;;;31.02;;
20734;SDS011;10528;52.124;5.196;2023-02-15T16:38:28;46.70;;;31.15;;
20734;SDS011;10528;52.124;5.196;2023-02-15T16:41:08;48.65;;;31.55;;
20734;SDS011;10528;52.124;5.196;2023-02-15T16:43:57;48.40;;;30.60;;
20734;SDS011;10528;52.124;5.196;2023-02-15T16:46:33;48.63;;;30.02;;
20734;SDS011;10528;52.124;5.196;2023-02-15T16:49:16;46.08;;;29.48;;
20734;SDS011;10528;52.124;5.196;2023-02-15T16:51:54;52.80;;;31.25;;
20734;SDS011;10528;52.124;5.196;2023-02-15T16:54:32;50.22;;;30.77;;
20734;SDS011;10528;52.124;5.196;2023-02-15T16:57:01;54.38;;;32.13;;
20734;SDS011;10528;52.124;5.196;2023-02-15T17:02:04;44.40;;;30.17;;
20734;SDS011;10528;52.124;5.196;2023-02-15T17:07:32;50.13;;;31.05;;
20734;SDS011;10528;52.124;5.196;2023-02-15T17:09:59;49.88;;;31.02;;
20734;SDS011;10528;52.124;5.196;2023-02-15T17:18:03;49.72;;;30.02;;
20734;SDS011;10528;52.124;5.196;2023-02-15T17:20:37;51.42;;;31.15;;
20734;SDS011;10528;52.124;5.196;2023-02-15T17:26:14;54.05;;;30.63;;
20734;SDS011;10528;52.124;5.196;2023-02-15T17:28:48;53.55;;;32.75;;
20734;SDS011;10528;52.124;5.196;2023-02-15T17:31:25;49.92;;;31.95;;
20734;SDS011;10528;52.124;5.196;2023-02-15T17:33:59;52.67;;;32.83;;
20734;SDS011;10528;52.124;5.196;2023-02-15T17:36:28;50.65;;;32.13;;
20734;SDS011;10528;52.124;5.196;2023-02-15T17:41:24;53.50;;;32.20;;
20734;SDS011;10528;52.124;5.196;2023-02-15T17:43:53;52.75;;;32.10;;
20734;SDS011;10528;52.124;5.196;2023-02-15T17:46:21;48.63;;;31.42;;
20734;SDS011;10528;52.124;5.196;2023-02-15T17:48:50;46.97;;;30.73;;
20734;SDS011;10528;52.124;5.196;2023-02-15T17:51:20;49.60;;;32.38;;
20734;SDS011;10528;52.124;5.196;2023-02-15T17:53:48;48.70;;;31.58;;
20734;SDS011;10528;52.124;5.196;2023-02-15T17:56:37;53.95;;;32.65;;
20734;SDS011;10528;52.124;5.196;2023-02-15T17:59:05;52.70;;;33.30;;
20734;SDS011;10528;52.124;5.196;2023-02-15T18:01:37;54.85;;;33.30;;
20734;SDS011;10528;52.124;5.196;2023-02-15T18:04:33;48.25;;;32.03;;
20734;SDS011;10528;52.124;5.196;2023-02-15T18:07:21;48.72;;;31.98;;
20734;SDS011;10528;52.124;5.196;2023-02-15T18:10:17;52.92;;;32.78;;
20734;SDS011;10528;52.124;5.196;2023-02-15T18:13:03;50.70;;;33.17;;
20734;SDS011;10528;52.124;5.196;2023-02-15T18:15:30;49.28;;;31.42;;
20734;SDS011;10528;52.124;5.196;2023-02-15T18:17:57;51.17;;;31.98;;
20734;SDS011;10528;52.124;5.196;2023-02-15T18:20:25;45.88;;;31.10;;
20734;SDS011;10528;52.124;5.196;2023-02-15T18:23:02;50.60;;;31.23;;
20734;SDS011;10528;52.124;5.196;2023-02-15T18:25:29;46.63;;;31.58;;
20734;SDS011;10528;52.124;5.196;2023-02-15T18:27:56;48.90;;;31.67;;